Time;durP1;ratioP1;P1;durP2;ratioP2;P2;SDS_P1;SDS_P2;PMS_P1;PMS_P2;Temp;Humidity;BMP_temperature;BMP_pressure;BME280_temperature;BME280_humidity;BME280_pressure;Samples;Min_cycle;Max_cycle;Signal;HPM_P1;HPM_P2
2022/03/17 00:02:05;;;;;;;6.85;2.47;;;;;;;1.30;64.50;101879.25;5051498;28;20037;-76
2022/03/17 00:04:31;;;;;;;8.30;2.50;;;;;;;1.22;64.38;101862.41;5050422;28;20044;-76
2022/03/17 00:06:57;;;;;;;8.77;3.58;;;;;;;1.31;64.21;101874.97;5050715;28;20049;-76
2022/03/17 00:09:23;;;;;;;7.80;4.30;;;;;;;1.32;63.80;101875.09;5051612;28;20033;-76
2022/03/17 00:11:48;;;;;;;9.20;2.63;;;;;;;1.25;63.39;101866.06;5051698;28;20032;-74
2022/03/17 00:14:14;;;;;;;13.23;4.03;;;;;;;1.29;63.99;101871.41;5048440;28;20052;-75
2022/03/17 00:16:40;;;;;;;15.02;4.25;;;;;;;1.34;63.73;101886.41;5035769;28;20044;-73
2022/03/17 00:19:07;;;;;;;7.63;3.55;;;;;;;1.38;63.53;101896.16;5051158;28;20048;-75
2022/03/17 00:21:37;;;;;;;8.70;3.35;;;;;;;1.24;63.52;101891.81;5048751;28;20045;-75
2022/03/17 00:24:04;;;;;;;13.70;4.82;;;;;;;1.38;62.66;101896.16;5051113;28;20053;-75
2022/03/17 00:26:29;;;;;;;8.10;2.97;;;;;;;1.35;62.86;101910.56;5050328;28;20025;-75
2022/03/17 00:28:55;;;;;;;8.68;4.18;;;;;;;1.36;62.71;101891.66;5063552;28;20033;-74
2022/03/17 00:31:21;;;;;;;10.40;3.80;;;;;;;1.37;62.22;101891.75;5051183;28;20055;-75
2022/03/17 00:33:47;;;;;;;17.55;5.05;;;;;;;1.33;62.11;101902.72;5049501;28;20041;-73
2022/03/17 00:36:12;;;;;;;8.20;4.13;;;;;;;1.34;61.78;101908.81;5050101;28;20024;-74
2022/03/17 00:38:38;;;;;;;17.90;3.25;;;;;;;1.35;62.21;101924.38;5050781;28;20381;-74
2022/03/17 00:41:03;;;;;;;8.70;4.38;;;;;;;1.62;61.21;101914.84;5049409;28;20036;-73
2022/03/17 00:43:29;;;;;;;7.30;3.65;;;;;;;1.57;60.90;101911.09;5049809;28;20181;-74
2022/03/17 00:45:54;;;;;;;14.77;3.13;;;;;;;1.57;61.09;101916.25;5053289;28;20492;-74
2022/03/17 00:48:20;;;;;;;12.45;2.70;;;;;;;1.26;60.98;101910.88;5035685;28;20132;-75
2022/03/17 00:50:45;;;;;;;5.45;2.53;;;;;;;1.25;61.25;101933.28;5047647;28;20029;-73
2022/03/17 00:53:11;;;;;;;6.65;2.97;;;;;;;1.43;60.63;101930.06;5018565;28;20506;-74
2022/03/17 00:55:37;;;;;;;8.85;3.50;;;;;;;1.34;60.26;101920.03;5047132;28;20111;-75
2022/03/17 00:58:02;;;;;;;7.53;2.60;;;;;;;1.19;60.69;101896.69;5028795;28;20074;-74
2022/03/17 01:00:28;;;;;;;5.05;2.63;;;;;;;1.27;60.55;101910.09;5036437;28;20045;-74
2022/03/17 01:02:54;;;;;;;8.52;3.95;;;;;;;1.26;60.16;101918.66;5020700;28;20026;-74
2022/03/17 01:05:22;;;;;;;8.68;3.78;;;;;;;1.26;60.12;101931.56;5039677;28;20516;-74
2022/03/17 01:07:47;;;;;;;12.73;3.25;;;;;;;1.37;59.75;101924.50;5043193;28;20033;-74
2022/03/17 01:10:18;;;;;;;5.18;2.35;;;;;;;1.20;59.60;101929.50;5030121;28;20563;-74
2022/03/17 01:12:46;;;;;;;26.23;6.80;;;;;;;1.24;59.64;101926.31;5048207;28;20101;-74
2022/03/17 01:15:13;;;;;;;6.50;2.92;;;;;;;1.22;59.80;101946.03;5029998;28;20028;-74
2022/03/17 01:17:38;;;;;;;4.60;2.70;;;;;;;1.23;60.15;101939.16;5048399;28;20060;-74
2022/03/17 01:20:05;;;;;;;6.85;3.10;;;;;;;1.25;59.81;101934.97;5047817;28;20052;-74
2022/03/17 01:22:31;;;;;;;6.13;3.55;;;;;;;1.25;59.44;101945.31;5048119;28;20123;-74
2022/03/17 01:24:56;;;;;;;5.55;3.30;;;;;;;1.19;59.58;101961.31;5044008;28;20052;-74
2022/03/17 01:27:23;;;;;;;7.68;3.15;;;;;;;1.23;59.65;101934.88;5047405;28;20362;-74
2022/03/17 01:29:49;;;;;;;5.85;3.33;;;;;;;1.21;59.77;101935.56;5048397;28;20033;-74
2022/03/17 01:32:16;;;;;;;4.20;2.53;;;;;;;1.25;59.58;101934.97;5047057;28;20112;-74
2022/03/17 01:34:41;;;;;;;13.13;3.90;;;;;;;1.09;59.48;101932.22;5047863;28;20055;-74
2022/03/17 01:37:07;;;;;;;5.80;3.03;;;;;;;1.11;59.65;101920.28;5047720;28;20037;-74
2022/03/17 01:39:32;;;;;;;5.22;2.53;;;;;;;1.05;59.52;101937.22;5058103;28;20040;-74
2022/03/17 01:41:58;;;;;;;5.40;2.72;;;;;;;0.88;59.80;101935.22;5049138;28;20029;-74
2022/03/17 01:44:25;;;;;;;8.38;4.05;;;;;;;1.02;59.86;101949.03;5047950;28;20680;-74
2022/03/17 01:49:38;;;;;;;6.78;4.20;;;;;;;0.92;60.23;101947.56;5047520;28;20064;-74
2022/03/17 01:52:04;;;;;;;8.40;4.07;;;;;;;0.97;59.93;101945.28;5048115;28;20033;-74
2022/03/17 01:54:30;;;;;;;11.05;2.53;;;;;;;0.85;60.24;101947.97;5051104;28;20044;-73
2022/03/17 01:56:55;;;;;;;7.82;2.92;;;;;;;1.04;60.10;101947.44;5034877;28;20029;-74
2022/03/17 01:59:22;;;;;;;5.03;2.95;;;;;;;0.71;60.02;101951.34;5053999;28;20036;-74
2022/03/17 02:05:10;;;;;;;4.63;1.90;;;;;;;0.73;60.54;101973.03;5053041;28;20109;-73
2022/03/17 02:07:35;;;;;;;6.75;2.67;;;;;;;0.65;60.64;101974.19;5051122;28;20249;-74
2022/03/17 02:10:01;;;;;;;12.68;3.97;;;;;;;0.69;60.22;101971.91;5050687;28;20480;-75
2022/03/17 02:15:11;;;;;;;5.30;2.95;;;;;;;0.65;60.67;101980.25;5046595;28;20040;-73
2022/03/17 02:17:39;;;;;;;7.60;2.70;;;;;;;0.67;60.74;101995.84;5051388;28;20041;-73
2022/03/17 02:20:09;;;;;;;6.28;3.10;;;;;;;0.56;60.90;101984.81;5036658;28;20477;-74
2022/03/17 02:22:41;;;;;;;9.88;2.13;;;;;;;0.57;60.62;101981.44;5046384;28;20599;-73
2022/03/17 02:27:51;;;;;;;6.40;2.58;;;;;;;0.57;61.31;101978.88;5042138;28;20044;-73
2022/03/17 02:30:19;;;;;;;5.78;2.42;;;;;;;0.68;60.98;102005.38;5036312;28;20091;-74
2022/03/17 02:32:45;;;;;;;8.55;3.42;;;;;;;0.56;61.08;102003.81;5055813;28;20527;-75
2022/03/17 02:35:22;;;;;;;11.30;3.38;;;;;;;0.51;61.04;101987.09;5039533;28;20037;-74
2022/03/17 02:37:49;;;;;;;5.38;2.88;;;;;;;0.53;61.04;101998.41;5049252;28;20049;-73
2022/03/17 02:40:14;;;;;;;8.70;3.60;;;;;;;0.59;61.17;101979.88;5033318;28;20508;-73
2022/03/17 02:42:40;;;;;;;9.32;2.80;;;;;;;0.50;61.47;101985.31;5037205;28;20045;-74
2022/03/17 02:45:07;;;;;;;4.20;2.50;;;;;;;0.63;61.08;101980.16;5043191;28;20075;-73
2022/03/17 02:47:34;;;;;;;14.02;3.15;;;;;;;0.62;60.85;102005.88;5038109;28;20025;-74
2022/03/17 02:49:59;;;;;;;19.10;4.20;;;;;;;0.70;61.08;102017.59;5046654;28;20119;-73
2022/03/17 02:52:26;;;;;;;4.28;2.10;;;;;;;0.69;60.89;102012.34;5047745;28;20064;-73
2022/03/17 02:54:53;;;;;;;7.65;3.00;;;;;;;0.54;61.17;102012.22;5030375;28;20049;-74
2022/03/17 02:57:19;;;;;;;9.48;2.08;;;;;;;0.74;60.84;102019.59;5042143;28;20049;-74
2022/03/17 02:59:46;;;;;;;4.90;2.47;;;;;;;0.62;60.48;102011.94;5040865;28;20029;-74
2022/03/17 03:02:13;;;;;;;8.18;4.55;;;;;;;0.75;60.46;102024.00;5040403;28;20045;-74
2022/03/17 03:04:39;;;;;;;3.53;1.90;;;;;;;0.77;60.41;102024.06;5017601;28;20396;-75
2022/03/17 03:07:06;;;;;;;4.88;2.53;;;;;;;0.83;60.09;102033.13;5035052;28;20033;-75
2022/03/17 03:09:32;;;;;;;4.82;2.00;;;;;;;0.75;60.21;102020.50;5050486;28;20037;-75
2022/03/17 03:12:00;;;;;;;3.88;1.73;;;;;;;0.84;59.81;102032.34;5041670;28;20384;-74
2022/03/17 03:14:26;;;;;;;5.82;2.92;;;;;;;0.82;59.72;102027.88;5050547;28;20676;-75
2022/03/17 03:16:51;;;;;;;6.70;2.65;;;;;;;0.78;60.30;102026.75;5051560;28;20531;-74
2022/03/17 03:19:17;;;;;;;12.68;3.85;;;;;;;0.98;60.01;102050.41;5044810;28;20496;-74
2022/03/17 03:21:43;;;;;;;18.27;3.42;;;;;;;0.77;60.11;102031.81;5049717;28;20556;-74
2022/03/17 03:24:10;;;;;;;3.05;2.20;;;;;;;0.89;60.37;102048.16;5044482;28;20075;-73
2022/03/17 03:26:35;;;;;;;9.32;3.45;;;;;;;0.81;60.52;102041.56;5048940;28;20040;-74
2022/03/17 03:29:03;;;;;;;7.97;3.55;;;;;;;0.70;60.93;102032.22;5034314;28;20393;-74
2022/03/17 03:32:06;;;;;;;8.52;4.18;;;;;;;0.74;61.08;102049.72;5037489;28;20051;-74
2022/03/17 03:34:33;;;;;;;6.45;2.30;;;;;;;0.67;61.60;102045.81;5043846;28;20131;-74
2022/03/17 03:39:43;;;;;;;5.13;2.03;;;;;;;0.73;61.42;102048.81;5044887;28;20131;-76
2022/03/17 03:42:10;;;;;;;17.45;4.13;;;;;;;0.77;61.97;102055.06;5043038;28;20037;-76
2022/03/17 03:44:37;;;;;;;7.68;2.80;;;;;;;0.80;61.70;102069.09;5034942;28;20028;-75
2022/03/17 03:47:04;;;;;;;10.90;2.53;;;;;;;0.83;61.63;102082.22;5034232;28;20182;-77
2022/03/17 03:49:29;;;;;;;4.03;2.13;;;;;;;0.60;62.24;102083.25;5051995;28;20469;-75
2022/03/17 03:51:56;;;;;;;9.52;3.55;;;;;;;0.93;61.73;102101.81;5050277;28;20044;-75
2022/03/17 03:54:21;;;;;;;4.15;2.25;;;;;;;0.70;62.46;102079.59;5053265;28;20507;-75
2022/03/17 03:56:54;;;;;;;4.95;2.63;;;;;;;0.77;62.51;102107.66;5053701;28;20025;-75
2022/03/17 03:59:22;;;;;;;12.57;3.53;;;;;;;0.62;62.43;102110.09;5048968;28;20043;-74
2022/03/17 04:01:59;;;;;;;4.45;1.92;;;;;;;0.73;62.65;102110.81;5035073;28;20042;-75
2022/03/17 04:04:26;;;;;;;4.68;2.40;;;;;;;0.66;63.05;102121.53;5050805;28;20041;-75
2022/03/17 04:06:54;;;;;;;22.23;3.30;;;;;;;0.60;62.86;102113.38;5031166;28;20033;-74
2022/03/17 04:09:23;;;;;;;4.07;1.73;;;;;;;0.72;62.75;102121.94;5032437;28;20389;-75
2022/03/17 04:11:49;;;;;;;6.28;3.65;;;;;;;0.58;63.20;102117.53;5038750;28;20032;-73
2022/03/17 04:14:16;;;;;;;5.65;3.55;;;;;;;0.53;63.75;102142.16;5050718;28;20501;-74
2022/03/17 04:16:42;;;;;;;5.57;2.22;;;;;;;0.44;63.73;102134.66;5050370;28;20045;-75
2022/03/17 04:19:12;;;;;;;9.25;4.32;;;;;;;0.85;63.25;102144.34;5048067;28;20492;-75
2022/03/17 04:25:01;;;;;;;9.68;3.58;;;;;;;0.71;63.42;102152.84;5052363;28;20133;-73
2022/03/17 04:31:33;;;;;;;13.55;3.58;;;;;;;0.56;64.09;102157.84;5052669;28;20039;-74
2022/03/17 04:34:00;;;;;;;5.68;2.58;;;;;;;0.43;64.56;102162.97;5031872;28;20110;-73
2022/03/17 04:36:25;;;;;;;8.52;4.07;;;;;;;0.60;64.47;102163.31;5031186;28;20099;-74
2022/03/17 04:38:51;;;;;;;5.65;3.15;;;;;;;0.71;64.11;102139.94;5034115;28;20025;-74
2022/03/17 04:41:17;;;;;;;10.25;3.75;;;;;;;0.51;64.74;102160.13;5034023;28;20495;-75
2022/03/17 04:43:43;;;;;;;7.72;3.20;;;;;;;0.41;65.05;102168.03;5040395;28;20037;-75
2022/03/17 04:46:08;;;;;;;12.93;4.13;;;;;;;0.34;65.51;102155.47;5050893;28;20495;-74
2022/03/17 04:48:34;;;;;;;10.45;4.00;;;;;;;0.56;65.36;102175.94;5050347;28;20116;-75
2022/03/17 04:51:00;;;;;;;8.48;2.85;;;;;;;0.66;65.19;102193.88;5049715;28;20037;-75
2022/03/17 04:53:34;;;;;;;13.07;7.07;;;;;;;0.36;65.57;102184.91;5050037;28;20374;-75
2022/03/17 04:56:03;;;;;;;13.88;6.47;;;;;;;0.37;65.73;102191.84;5046000;28;20041;-75
2022/03/17 04:58:40;;;;;;;8.25;4.20;;;;;;;0.28;66.02;102188.59;5036851;28;20194;-75
2022/03/17 05:01:07;;;;;;;16.10;4.53;;;;;;;0.30;65.93;102203.41;5047152;28;20477;-76
2022/03/17 05:03:33;;;;;;;17.15;4.30;;;;;;;0.38;65.91;102215.19;5025117;28;20055;-75
2022/03/17 05:05:59;;;;;;;7.95;4.90;;;;;;;0.33;65.84;102210.50;5051585;28;20024;-75
2022/03/17 05:08:25;;;;;;;6.50;3.42;;;;;;;0.36;66.09;102221.94;5038947;28;20032;-75
2022/03/17 05:10:52;;;;;;;8.25;3.53;;;;;;;0.36;66.09;102221.94;5049753;28;20484;-75
2022/03/17 05:13:19;;;;;;;11.32;3.08;;;;;;;0.40;66.03;102208.44;5053129;28;20037;-75
2022/03/17 05:19:07;;;;;;;8.38;4.90;;;;;;;0.32;66.24;102227.66;5048662;28;20048;-75
2022/03/17 05:22:09;;;;;;;8.63;4.25;;;;;;;0.36;65.93;102224.50;5032121;28;20041;-73
2022/03/17 05:25:30;;;;;;;7.57;3.08;;;;;;;0.28;66.43;102241.16;5033428;28;20044;-75
2022/03/17 05:27:56;;;;;;;14.82;3.42;;;;;;;0.49;65.86;102230.53;5037334;28;20114;-76
2022/03/17 05:30:21;;;;;;;11.02;5.32;;;;;;;0.58;65.71;102228.59;5052828;28;20449;-77
2022/03/17 05:32:48;;;;;;;16.17;5.78;;;;;;;0.69;65.16;102243.16;5052512;28;20025;-76
2022/03/17 05:35:14;;;;;;;11.23;5.00;;;;;;;0.77;64.95;102244.59;5049891;28;20092;-76
2022/03/17 05:37:40;;;;;;;9.20;5.78;;;;;;;0.66;65.13;102230.03;5050476;28;20156;-77
2022/03/17 05:40:14;;;;;;;7.97;4.13;;;;;;;1.03;64.44;102248.97;5053082;28;20080;-75
2022/03/17 05:42:43;;;;;;;;;;;;;;;0.74;65.16;102244.34;5038527;28;20057;-74
2022/03/17 05:45:43;;;;;;;14.40;4.97;;;;;;;0.81;64.48;102251.75;5040669;28;19913;-77
2022/03/17 05:48:09;;;;;;;13.63;5.13;;;;;;;1.19;63.89;102258.63;5029316;28;20359;-74
2022/03/17 05:50:39;;;;;;;13.40;8.35;;;;;;;1.13;63.51;102254.75;5034779;28;20036;-75
2022/03/17 05:53:06;;;;;;;6.90;3.83;;;;;;;0.96;63.90;102253.59;5048130;28;20041;-74
2022/03/17 05:55:48;;;;;;;8.80;4.22;;;;;;;0.83;64.06;102257.91;5036798;28;20041;-76
2022/03/17 05:58:13;;;;;;;17.65;4.63;;;;;;;0.77;63.99;102254.00;5031459;28;20030;-75
2022/03/17 06:00:39;;;;;;;20.92;4.07;;;;;;;0.94;63.91;102269.00;5052441;28;20045;-76
2022/03/17 06:03:04;;;;;;;11.48;3.63;;;;;;;1.08;63.81;102259.63;5045815;28;20021;-76
2022/03/17 06:05:30;;;;;;;9.85;6.05;;;;;;;0.96;64.44;102279.44;5031314;28;20029;-77
2022/03/17 06:08:00;;;;;;;14.68;3.78;;;;;;;1.16;63.82;102283.41;5040055;28;20033;-76
2022/03/17 06:10:34;;;;;;;6.68;2.88;;;;;;;1.48;62.54;102275.25;5049181;28;20110;-76
2022/03/17 06:13:06;;;;;;;;;;;;;;;1.22;62.93;102292.47;5051617;28;20147;-76
2022/03/17 06:15:35;;;;;;;7.40;3.55;;;;;;;1.52;62.92;102284.06;5029328;28;19924;-75
2022/03/17 06:18:03;;;;;;;14.27;4.82;;;;;;;1.45;62.85;102285.34;5044036;28;20087;-77
2022/03/17 06:20:35;;;;;;;9.13;3.85;;;;;;;1.23;62.86;102293.38;5033664;28;20116;-75
2022/03/17 06:23:02;;;;;;;7.28;3.20;;;;;;;1.49;62.26;102292.53;5041727;28;21432;-75
2022/03/17 06:25:30;;;;;;;12.63;4.53;;;;;;;1.67;62.46;102298.94;5049206;28;20033;-75
2022/03/17 06:27:56;;;;;;;9.70;5.20;;;;;;;1.38;62.98;102289.25;5046480;28;20033;-76
2022/03/17 06:30:27;;;;;;;7.03;4.30;;;;;;;1.75;62.65;102298.56;5044155;28;20054;-76
2022/03/17 06:32:54;;;;;;;12.65;4.35;;;;;;;1.93;62.03;102286.81;5032791;28;20032;-76
2022/03/17 06:35:21;;;;;;;17.05;5.22;;;;;;;1.78;62.41;102306.50;5038698;28;20057;-75
2022/03/17 06:37:50;;;;;;;8.75;3.80;;;;;;;1.64;62.77;102290.09;5046740;28;20503;-74
2022/03/17 06:40:16;;;;;;;7.45;3.47;;;;;;;1.75;61.71;102299.44;5041931;28;20040;-76
2022/03/17 06:42:42;;;;;;;9.35;4.05;;;;;;;1.85;62.18;102319.06;5033970;28;20046;-78
2022/03/17 06:45:09;;;;;;;17.35;5.28;;;;;;;2.00;60.96;102307.13;5051220;28;20163;-77
2022/03/17 06:47:36;;;;;;;7.60;3.40;;;;;;;1.80;61.90;102316.19;5061498;28;20021;-80
2022/03/17 06:50:34;;;;;;;5.95;3.47;;;;;;;1.64;62.35;102319.44;5041780;28;20041;-81
2022/03/17 06:53:00;;;;;;;10.35;4.00;;;;;;;1.90;61.86;102300.47;5041270;28;20037;-80
2022/03/17 06:55:27;;;;;;;5.93;3.63;;;;;;;1.90;61.62;102307.34;5050979;28;20069;-78
2022/03/17 06:57:52;;;;;;;15.13;5.90;;;;;;;2.36;60.90;102323.25;5038381;28;20116;-76
2022/03/17 07:00:20;;;;;;;11.25;5.20;;;;;;;2.32;60.22;102305.75;5043972;28;20048;-75
2022/03/17 07:02:47;;;;;;;8.90;4.75;;;;;;;2.48;60.26;102329.25;5050599;28;20033;-75
2022/03/17 07:05:12;;;;;;;15.27;4.68;;;;;;;2.90;59.25;102331.81;5049858;28;20040;-74
2022/03/17 07:07:39;;;;;;;10.27;4.18;;;;;;;2.20;59.87;102321.38;5030748;28;20073;-74
2022/03/17 07:10:09;;;;;;;18.83;4.55;;;;;;;2.38;59.94;102344.06;5049657;28;20053;-75
2022/03/17 07:12:36;;;;;;;8.18;3.78;;;;;;;2.11;60.52;102338.91;5049747;28;20049;-75
2022/03/17 07:15:03;;;;;;;9.18;3.88;;;;;;;2.28;60.66;102345.19;5048746;28;20039;-74
2022/03/17 07:17:36;;;;;;;13.38;4.63;;;;;;;2.64;60.18;102341.44;5048990;28;20037;-74
2022/03/17 07:20:03;;;;;;;;;;;;;;;3.09;58.58;102357.19;5024278;28;20369;-75
2022/03/17 07:22:29;;;;;;;8.05;4.50;;;;;;;2.83;58.35;102356.47;5049646;28;20389;-75
2022/03/17 07:24:54;;;;;;;11.55;3.97;;;;;;;3.18;58.33;102349.97;5045631;28;20049;-74
2022/03/17 07:27:23;;;;;;;19.25;6.03;;;;;;;2.82;57.78;102349.50;5049812;28;20504;-75
2022/03/17 07:29:50;;;;;;;15.93;6.03;;;;;;;3.33;56.69;102363.00;5050129;28;20469;-75
2022/03/17 07:32:18;;;;;;;8.82;5.63;;;;;;;3.72;55.47;102359.31;5048893;28;20045;-75
2022/03/17 07:34:44;;;;;;;7.75;3.88;;;;;;;3.32;57.29;102368.97;5038712;28;20059;-75
2022/03/17 07:37:09;;;;;;;16.55;4.00;;;;;;;3.16;56.94;102373.25;5051618;28;20416;-76
2022/03/17 07:39:35;;;;;;;8.63;3.83;;;;;;;4.05;55.89;102374.16;5049457;28;20058;-75
2022/03/17 07:42:00;;;;;;;14.15;4.30;;;;;;;3.57;55.16;102381.75;5049267;28;20028;-76
2022/03/17 07:44:28;;;;;;;8.18;4.15;;;;;;;2.94;56.70;102365.81;5049744;28;20423;-74
2022/03/17 07:46:54;;;;;;;8.70;4.53;;;;;;;3.11;55.96;102382.44;5040265;28;20119;-76
2022/03/17 07:49:20;;;;;;;21.10;4.97;;;;;;;3.63;54.95;102387.31;5028937;28;20501;-78
2022/03/17 07:51:46;;;;;;;25.17;4.53;;;;;;;3.89;51.64;102383.66;5044902;28;20467;-76
2022/03/17 07:54:12;;;;;;;10.02;2.70;;;;;;;4.02;50.41;102369.69;5028703;28;20022;-78
2022/03/17 07:56:37;;;;;;;6.80;3.58;;;;;;;3.71;50.82;102375.69;5033211;28;20033;-75
2022/03/17 07:59:03;;;;;;;8.07;4.43;;;;;;;3.68;51.11;102379.81;5045166;28;20041;-75
2022/03/17 08:01:29;;;;;;;33.38;7.78;;;;;;;3.83;51.01;102375.50;5027393;28;20473;-74
2022/03/17 08:03:55;;;;;;;9.57;3.88;;;;;;;4.26;49.61;102392.69;5029102;28;20441;-74
2022/03/17 08:06:25;;;;;;;12.93;5.63;;;;;;;3.78;49.98;102379.53;5038139;28;20118;-74
2022/03/17 08:08:51;;;;;;;19.48;3.63;;;;;;;3.56;50.25;102378.25;5049385;28;20090;-74
2022/03/17 08:11:16;;;;;;;22.67;7.35;;;;;;;4.04;49.09;102400.97;5030700;28;20049;-74
2022/03/17 08:13:42;;;;;;;15.93;4.78;;;;;;;4.35;47.63;102385.44;5048601;28;20484;-75
2022/03/17 08:16:10;;;;;;;12.57;4.53;;;;;;;4.43;46.26;102389.38;5048835;28;20048;-75
2022/03/17 08:18:36;;;;;;;24.17;6.30;;;;;;;4.50;45.55;102382.84;5049186;28;20473;-75
2022/03/17 08:21:01;;;;;;;19.95;4.80;;;;;;;4.73;45.14;102394.50;5048519;28;20029;-75
2022/03/17 08:23:29;;;;;;;16.15;4.28;;;;;;;3.33;48.15;102396.72;5022249;28;20032;-75
2022/03/17 08:25:55;;;;;;;12.80;4.53;;;;;;;3.24;48.38;102396.16;5035509;28;20128;-79
2022/03/17 08:28:20;;;;;;;14.00;5.38;;;;;;;3.56;46.21;102399.03;5029138;28;20132;-74
2022/03/17 08:30:47;;;;;;;10.52;4.88;;;;;;;3.55;47.13;102391.13;5016419;28;20087;-81
2022/03/17 08:33:14;;;;;;;9.45;4.30;;;;;;;4.39;46.25;102395.19;5047569;28;20031;-75
2022/03/17 08:35:40;;;;;;;13.60;5.43;;;;;;;4.22;45.74;102400.31;5045085;28;20041;-75
2022/03/17 08:38:06;;;;;;;18.58;5.57;;;;;;;4.58;44.47;102398.03;5048394;28;20090;-75
2022/03/17 08:40:32;;;;;;;7.78;4.10;;;;;;;3.81;44.32;102405.69;5048010;28;20040;-74
2022/03/17 08:42:57;;;;;;;13.38;4.90;;;;;;;4.61;44.61;102389.50;5048577;28;20478;-75
2022/03/17 08:50:51;;;;;;;12.90;5.10;;;;;;;4.40;44.02;102405.69;5045146;28;20849;-75
2022/03/17 08:53:16;;;;;;;14.82;5.07;;;;;;;3.25;43.21;102382.38;5036428;28;20053;-75
2022/03/17 08:55:42;;;;;;;19.50;7.03;;;;;;;4.00;42.67;102407.66;5045482;28;20472;-77
2022/03/17 08:58:08;;;;;;;15.43;4.85;;;;;;;4.31;41.45;102405.16;5040177;28;20063;-76
2022/03/17 09:00:34;;;;;;;9.70;4.43;;;;;;;3.55;41.33;102414.50;5042090;28;20049;-74
2022/03/17 09:03:04;;;;;;;11.30;5.47;;;;;;;2.83;42.62;102417.78;5039264;28;20103;-80
2022/03/17 09:05:33;;;;;;;7.07;3.50;;;;;;;3.95;41.32;102415.19;5040196;28;20036;-75
2022/03/17 09:08:04;;;;;;;16.50;5.30;;;;;;;3.45;41.47;102433.81;5036544;28;20033;-75
2022/03/17 09:10:31;;;;;;;44.25;6.82;;;;;;;4.13;41.24;102433.56;5016425;28;20045;-76
2022/03/17 09:12:59;;;;;;;21.13;4.05;;;;;;;4.36;41.15;102429.72;5048369;28;20037;-75
2022/03/17 09:15:25;;;;;;;21.88;5.10;;;;;;;4.63;39.91;102426.88;5053787;28;20052;-75
2022/03/17 09:17:51;;;;;;;7.95;5.13;;;;;;;4.72;39.66;102431.72;5047540;28;20376;-77
2022/03/17 09:20:16;;;;;;;20.35;5.35;;;;;;;4.41;39.96;102432.56;5046584;28;20056;-76
2022/03/17 09:22:45;;;;;;;9.48;3.55;;;;;;;3.90;40.54;102433.91;5047212;28;20443;-76
2022/03/17 09:25:11;;;;;;;8.13;4.60;;;;;;;3.98;40.67;102424.84;5041186;28;20512;-78
2022/03/17 09:27:37;;;;;;;15.13;5.35;;;;;;;3.69;42.21;102420.53;5041025;28;20049;-80
2022/03/17 09:30:04;;;;;;;10.85;5.57;;;;;;;4.49;40.92;102420.00;5040790;28;20029;-76
2022/03/17 09:32:30;;;;;;;12.07;4.88;;;;;;;4.95;41.17;102412.19;5033999;28;20037;-75
2022/03/17 09:34:57;;;;;;;24.95;5.32;;;;;;;4.90;39.86;102444.88;5018564;28;20492;-75
2022/03/17 09:37:22;;;;;;;8.88;4.85;;;;;;;4.76;40.36;102425.88;5027368;28;20042;-75
2022/03/17 09:39:49;;;;;;;11.27;4.25;;;;;;;4.44;40.64;102448.34;5026753;28;20108;-75
2022/03/17 09:42:19;;;;;;;8.55;4.82;;;;;;;5.00;39.98;102435.03;5047121;28;20045;-75
2022/03/17 09:44:46;;;;;;;13.27;5.63;;;;;;;4.26;40.75;102442.06;5043729;28;20042;-71
2022/03/17 09:47:14;;;;;;;11.73;5.10;;;;;;;5.03;40.54;102431.72;5046657;28;20160;-71
2022/03/17 09:49:41;;;;;;;10.07;5.15;;;;;;;4.31;40.37;102432.81;5054513;28;20049;-71
2022/03/17 09:52:13;;;;;;;15.13;5.28;;;;;;;5.23;39.57;102445.84;5066806;28;20036;-74
2022/03/17 09:54:40;;;;;;;14.40;6.68;;;;;;;5.29;38.49;102444.47;5049016;28;20041;-76
2022/03/17 09:57:05;;;;;;;11.00;4.95;;;;;;;4.51;39.56;102434.00;5046804;28;20063;-75
2022/03/17 09:59:31;;;;;;;9.07;5.57;;;;;;;4.89;39.35;102430.94;5054382;28;20060;-75
2022/03/17 10:02:00;;;;;;;9.40;3.80;;;;;;;5.23;37.58;102445.84;5067213;28;20101;-74
2022/03/17 10:04:30;;;;;;;21.60;5.13;;;;;;;5.53;37.61;102444.00;5067011;28;20552;-74
2022/03/17 10:06:56;;;;;;;11.02;5.97;;;;;;;5.15;39.43;102422.00;5041921;28;20128;-74
2022/03/17 10:09:22;;;;;;;10.05;4.50;;;;;;;5.59;39.75;102417.38;5034612;28;20148;-77
2022/03/17 10:12:03;;;;;;;26.95;12.02;;;;;;;7.04;36.50;102418.53;5037043;28;20575;-74
2022/03/17 10:14:40;;;;;;;17.65;8.13;;;;;;;6.00;39.99;102416.06;5033898;28;20045;-74
2022/03/17 10:17:28;;;;;;;22.17;11.85;;;;;;;7.76;37.20;102424.41;5047062;28;20048;-73
2022/03/17 10:20:11;;;;;;;34.10;12.52;;;;;;;5.44;39.43;102430.47;5042223;28;20079;-72
2022/03/17 10:22:51;;;;;;;30.80;9.50;;;;;;;8.35;40.31;102417.31;5034409;28;20037;-75
2022/03/17 10:25:29;;;;;;;11.82;6.60;;;;;;;6.39;41.64;102418.84;5027168;28;20044;-71
2022/03/17 10:27:55;;;;;;;10.43;4.95;;;;;;;5.89;37.53;102424.16;5042907;28;20127;-73
2022/03/17 10:30:35;;;;;;;20.45;5.43;;;;;;;7.02;37.78;102441.06;5040657;28;20440;-72
2022/03/17 10:33:03;;;;;;;14.15;4.63;;;;;;;8.08;42.61;102429.22;5048492;28;20032;-73
2022/03/17 10:35:34;;;;;;;7.57;4.57;;;;;;;7.18;35.68;102430.50;5052573;28;20049;-71
2022/03/17 10:38:14;;;;;;;10.60;5.75;;;;;;;7.23;38.93;102414.16;5039019;28;20164;-71
2022/03/17 10:40:41;;;;;;;17.17;5.65;;;;;;;7.98;34.98;102427.94;5030881;28;20102;-73
2022/03/17 10:43:23;;;;;;;14.32;4.20;;;;;;;7.48;36.01;102432.75;5039501;28;20041;-74
2022/03/17 10:46:15;;;;;;;15.07;4.82;;;;;;;7.01;34.55;102430.56;5048201;28;20053;-71
2022/03/17 10:49:00;;;;;;;7.97;4.97;;;;;;;5.61;37.48;102431.38;5039933;28;20041;-70
2022/03/17 10:51:42;;;;;;;11.00;6.63;;;;;;;6.20;36.05;102432.69;5046331;28;20052;-72
2022/03/17 10:54:11;;;;;;;15.20;5.57;;;;;;;5.70;37.34;102435.34;5048737;28;20028;-71
2022/03/17 10:56:38;;;;;;;13.15;6.07;;;;;;;6.10;37.48;102410.50;5040629;28;20045;-71
2022/03/17 10:59:05;;;;;;;9.35;5.72;;;;;;;6.61;36.77;102423.44;5056922;28;20411;-72
2022/03/17 11:01:42;;;;;;;14.90;5.45;;;;;;;5.97;38.30;102421.09;5038580;28;20053;-72
2022/03/17 11:04:10;;;;;;;11.65;5.25;;;;;;;7.39;40.74;102419.25;5050528;28;20052;-72
2022/03/17 11:06:38;;;;;;;13.68;5.32;;;;;;;6.25;37.04;102426.91;5048065;28;20053;-71
2022/03/17 11:09:08;;;;;;;9.65;5.72;;;;;;;6.16;38.04;102415.09;5034691;28;20047;-71
2022/03/17 11:11:37;;;;;;;14.52;4.10;;;;;;;5.12;37.21;102416.59;5053627;28;20080;-71
2022/03/17 11:14:04;;;;;;;12.20;6.50;;;;;;;6.73;39.79;102435.34;5040001;28;20088;-73
2022/03/17 11:16:50;;;;;;;7.78;4.65;;;;;;;6.03;36.48;102421.41;5047154;28;20071;-73
2022/03/17 11:19:17;;;;;;;11.65;5.07;;;;;;;6.69;34.72;102428.19;5023657;28;20600;-71
2022/03/17 11:21:48;;;;;;;9.80;5.30;;;;;;;7.58;34.22;102429.69;5047725;28;20057;-73
2022/03/17 11:24:21;;;;;;;8.57;6.13;;;;;;;7.77;34.04;102428.81;5023310;28;20053;-70
2022/03/17 11:26:46;;;;;;;14.43;7.00;;;;;;;8.49;34.91;102409.19;5043371;28;20473;-72
2022/03/17 11:29:22;;;;;;;8.05;4.75;;;;;;;7.49;33.76;102411.03;5049178;28;20500;-76
2022/03/17 11:31:57;;;;;;;8.52;4.97;;;;;;;6.69;35.07;102403.81;5041146;28;20114;-76
2022/03/17 11:34:37;;;;;;;9.65;5.20;;;;;;;5.11;36.30;102419.16;5033888;28;20051;-76
2022/03/17 11:37:26;;;;;;;8.82;4.93;;;;;;;4.88;37.61;102420.47;5028524;28;20455;-75
2022/03/17 11:39:51;;;;;;;10.95;5.05;;;;;;;5.73;36.76;102416.38;5044255;28;20045;-78
2022/03/17 11:42:40;;;;;;;12.68;6.07;;;;;;;4.86;37.61;102420.38;5029100;28;20140;-75
2022/03/17 11:45:15;;;;;;;11.65;5.13;;;;;;;5.65;37.00;102428.13;4994385;28;20037;-76
2022/03/17 11:47:54;;;;;;;12.25;5.22;;;;;;;4.19;37.77;102423.53;5028651;28;20029;-75
2022/03/17 11:50:38;;;;;;;13.75;5.07;;;;;;;5.04;37.39;102424.00;5028426;28;20048;-74
2022/03/17 11:53:04;;;;;;;;;;;;;;;4.83;37.33;102426.31;5029075;28;20450;-75
2022/03/17 11:55:42;;;;;;;13.85;4.95;;;;;;;5.38;37.07;102409.31;5028859;28;19921;-74
2022/03/17 11:58:40;;;;;;;9.82;6.20;;;;;;;4.33;39.31;102408.75;5028466;28;20041;-77
2022/03/17 12:01:28;;;;;;;17.90;6.45;;;;;;;3.87;39.44;102415.56;5016941;28;20044;-77
2022/03/17 12:03:55;;;;;;;13.00;6.57;;;;;;;4.94;37.65;102407.78;5028138;28;20489;-76
2022/03/17 12:06:28;;;;;;;11.85;6.50;;;;;;;5.63;36.85;102409.78;5028649;28;20069;-75
2022/03/17 12:09:01;;;;;;;10.73;5.35;;;;;;;4.70;38.15;102410.81;5027631;28;20432;-75